createdAt,value
2022-09-12T00:01:51.275Z,9.75
2022-09-12T00:04:17.975Z,10.23
2022-09-12T00:06:45.140Z,10.27
2022-09-12T00:09:13.872Z,11.95
2022-09-12T00:11:44.138Z,11.15
2022-09-12T00:14:13.120Z,11.18
2022-09-12T00:16:39.793Z,11.10
2022-09-12T00:19:07.762Z,10.02
2022-09-12T00:21:36.088Z,10.43
2022-09-12T00:24:03.037Z,10.30
2022-09-12T00:26:29.607Z,10.18
2022-09-12T00:28:56.192Z,10.23
2022-09-12T00:31:25.141Z,9.55
2022-09-12T00:33:53.091Z,9.70
2022-09-12T00:36:22.610Z,8.80
2022-09-12T00:38:50.539Z,9.40
2022-09-12T00:41:22.311Z,9.65
2022-09-12T00:43:51.663Z,9.55
2022-09-12T00:46:47.415Z,10.27
2022-09-12T00:49:34.915Z,10.32
2022-09-12T00:52:12.005Z,9.52
2022-09-12T00:54:48.813Z,8.98
2022-09-12T00:57:17.420Z,9.63
2022-09-12T01:00:24.436Z,8.60
2022-09-12T01:02:57.300Z,9.07
2022-09-12T01:05:26.871Z,8.60
2022-09-12T01:07:54.673Z,7.82
2022-09-12T01:10:21.487Z,7.95
2022-09-12T01:12:48.441Z,8.38
2022-09-12T01:15:15.406Z,8.20
2022-09-12T01:18:00.754Z,8.45
2022-09-12T01:20:45.339Z,8.00
2022-09-12T01:23:31.277Z,8.40
2022-09-12T01:26:26.480Z,8.25
2022-09-12T01:29:11.937Z,7.70
2022-09-12T01:31:51.597Z,8.75
2022-09-12T01:34:30.495Z,8.15
2022-09-12T01:37:31.590Z,7.60
2022-09-12T01:40:14.241Z,8.43
2022-09-12T01:42:57.129Z,8.95
2022-09-12T01:45:30.331Z,8.13
2022-09-12T01:48:03.177Z,7.75
2022-09-12T01:50:37.583Z,9.07
2022-09-12T01:53:14.678Z,8.32
2022-09-12T01:55:51.434Z,8.63
2022-09-12T01:58:29.243Z,9.15
2022-09-12T02:01:02.979Z,8.95
2022-09-12T02:03:43.139Z,8.75
2022-09-12T02:06:19.216Z,9.20
2022-09-12T02:08:52.211Z,8.63
2022-09-12T02:11:20.464Z,8.88
2022-09-12T02:14:01.036Z,8.38
2022-09-12T02:16:42.126Z,8.38
2022-09-12T02:19:18.684Z,8.00
2022-09-12T02:21:55.220Z,8.27
2022-09-12T02:24:25.948Z,7.18
2022-09-12T02:27:03.354Z,7.60
2022-09-12T02:29:30.320Z,7.75
2022-09-12T02:32:08.764Z,7.55
2022-09-12T02:34:55.186Z,7.93
2022-09-12T02:37:33.907Z,7.82
2022-09-12T02:40:00.930Z,15.55
2022-09-12T02:42:27.587Z,6.80
2022-09-12T02:44:57.015Z,7.05
2022-09-12T02:47:34.282Z,7.30
2022-09-12T02:50:01.978Z,7.00
2022-09-12T02:52:29.167Z,6.47
2022-09-12T02:54:57.974Z,6.95
2022-09-12T02:57:24.944Z,6.82
2022-09-12T02:59:55.940Z,7.05
2022-09-12T03:02:31.925Z,6.78
2022-09-12T03:05:29.246Z,7.13
2022-09-12T03:08:14.046Z,7.22
2022-09-12T03:11:16.581Z,7.50
2022-09-12T03:14:17.522Z,8.82
2022-09-12T03:17:00.540Z,7.70
2022-09-12T03:19:53.893Z,8.50
2022-09-12T03:22:31.951Z,8.45
2022-09-12T03:25:16.353Z,8.95
2022-09-12T03:27:48.642Z,9.60
2022-09-12T03:32:53.337Z,8.88
2022-09-12T03:35:23.361Z,34.40
2022-09-12T03:37:51.176Z,9.48
2022-09-12T03:40:17.960Z,9.68
2022-09-12T03:42:44.584Z,8.95
2022-09-12T03:45:11.412Z,9.88
2022-09-12T03:47:38.037Z,10.00
2022-09-12T03:50:06.448Z,9.95
2022-09-12T03:52:33.417Z,9.38
2022-09-12T03:55:00.099Z,8.82
2022-09-12T03:57:26.649Z,8.85
2022-09-12T03:59:53.275Z,9.20
2022-09-12T04:02:20.031Z,8.57
2022-09-12T04:04:48.757Z,8.73
2022-09-12T04:07:16.451Z,8.68
2022-09-12T04:09:43.014Z,8.57
2022-09-12T04:12:09.581Z,9.20
2022-09-12T04:14:36.209Z,8.50
2022-09-12T04:17:02.802Z,8.73
2022-09-12T04:19:29.518Z,7.82
2022-09-12T04:21:56.154Z,7.45
2022-09-12T04:24:22.887Z,7.50
2022-09-12T04:26:49.554Z,7.22
2022-09-12T04:29:16.199Z,8.18
2022-09-12T04:31:43.509Z,7.82
2022-09-12T04:34:10.816Z,8.00
2022-09-12T04:36:37.813Z,7.40
2022-09-12T04:39:07.746Z,7.30
2022-09-12T04:41:36.865Z,6.88
2022-09-12T04:44:14.958Z,8.05
2022-09-12T04:46:46.749Z,7.63
2022-09-12T04:49:16.291Z,8.65
2022-09-12T04:51:43.556Z,8.35
2022-09-12T04:54:16.202Z,7.30
2022-09-12T04:56:45.359Z,7.95
2022-09-12T04:59:13.300Z,7.45
2022-09-12T05:01:40.470Z,8.65
2022-09-12T05:04:07.583Z,7.63
2022-09-12T05:06:36.359Z,7.80
2022-09-12T05:09:05.872Z,6.13
2022-09-12T05:12:02.698Z,4.65
2022-09-12T05:14:22.825Z,4.80
2022-09-12T05:16:49.983Z,4.93
2022-09-12T05:19:17.218Z,4.15
2022-09-12T05:21:43.920Z,4.22
2022-09-12T05:24:11.579Z,4.10
2022-09-12T05:26:38.369Z,4.20
2022-09-12T05:29:06.161Z,4.20
2022-09-12T05:31:33.049Z,4.93
2022-09-12T05:33:59.574Z,4.40
2022-09-12T05:36:29.292Z,4.03
2022-09-12T05:38:56.773Z,4.20
2022-09-12T05:41:26.104Z,4.38
2022-09-12T05:43:57.956Z,4.45
2022-09-12T05:46:30.399Z,3.78
2022-09-12T05:48:58.447Z,2.97
2022-09-12T05:51:28.095Z,3.00
2022-09-12T05:53:57.455Z,3.33
2022-09-12T05:56:26.670Z,3.28
2022-09-12T05:58:59.751Z,3.60
2022-09-12T06:01:27.378Z,3.22
2022-09-12T06:03:56.089Z,3.50
2022-09-12T06:06:24.823Z,3.15
2022-09-12T06:08:53.822Z,3.92
2022-09-12T06:11:23.036Z,4.38
2022-09-12T06:13:51.065Z,3.85
2022-09-12T06:16:26.177Z,4.28
2022-09-12T06:18:58.487Z,4.25
2022-09-12T06:21:26.749Z,3.72
2022-09-12T06:23:55.540Z,4.68
2022-09-12T06:26:24.607Z,4.30
2022-09-12T06:28:52.692Z,4.28
2022-09-12T06:31:25.130Z,4.10
2022-09-12T06:33:53.790Z,4.50
2022-09-12T06:36:27.740Z,4.72
2022-09-12T06:38:57.212Z,4.38
2022-09-12T06:41:25.432Z,4.63
2022-09-12T06:43:52.288Z,4.63
2022-09-12T06:46:19.098Z,4.97
2022-09-12T06:48:46.125Z,4.43
2022-09-12T06:51:15.697Z,4.72
2022-09-12T06:53:44.345Z,4.22
2022-09-12T06:56:14.230Z,4.78
2022-09-12T06:58:41.843Z,4.82
2022-09-12T07:01:24.061Z,4.50
2022-09-12T07:03:53.070Z,3.15
2022-09-12T07:06:22.062Z,3.47
2022-09-12T07:08:48.619Z,3.83
2022-09-12T07:11:23.859Z,3.60
2022-09-12T07:13:52.762Z,4.03
2022-09-12T07:16:20.352Z,3.50
2022-09-12T07:19:00.874Z,4.15
2022-09-12T07:21:28.292Z,4.00
2022-09-12T07:24:00.776Z,3.53
2022-09-12T07:26:29.305Z,4.45
2022-09-12T07:29:12.761Z,4.40
2022-09-12T07:31:40.110Z,4.63
2022-09-12T07:34:06.847Z,4.75
2022-09-12T07:36:34.343Z,5.03
2022-09-12T07:39:01.631Z,4.50
2022-09-12T07:41:30.209Z,4.32
2022-09-12T07:43:59.163Z,4.63
2022-09-12T07:46:27.513Z,4.38
2022-09-12T07:48:56.220Z,4.70
2022-09-12T07:51:23.961Z,4.07
2022-09-12T07:53:51.890Z,4.43
2022-09-12T07:56:19.940Z,3.92
2022-09-12T07:58:47.330Z,4.32
2022-09-12T08:01:19.522Z,4.07
2022-09-12T08:03:48.254Z,4.03
2022-09-12T08:06:19.999Z,3.85
2022-09-12T08:08:48.059Z,3.58
2022-09-12T08:11:16.708Z,3.10
2022-09-12T08:13:44.215Z,3.83
2022-09-12T08:16:21.832Z,3.35
2022-09-12T08:18:49.485Z,3.33
2022-09-12T08:21:25.302Z,3.47
2022-09-12T08:23:54.188Z,3.45
2022-09-12T08:26:21.319Z,3.10
2022-09-12T08:28:48.246Z,3.40
2022-09-12T08:31:18.172Z,3.03
2022-09-12T08:33:45.211Z,3.10
2022-09-12T08:36:17.838Z,3.35
2022-09-12T08:38:46.275Z,3.60
2022-09-12T08:41:27.308Z,3.30
2022-09-12T08:44:12.924Z,2.67
2022-09-12T08:47:05.597Z,2.65
2022-09-12T08:49:51.560Z,3.20
2022-09-12T08:52:38.451Z,3.42
2022-09-12T08:55:24.477Z,3.30
2022-09-12T08:57:52.050Z,3.38
2022-09-12T09:00:19.857Z,3.22
2022-09-12T09:02:55.505Z,4.13
2022-09-12T09:05:42.074Z,3.53
2022-09-12T09:08:23.864Z,3.53
2022-09-12T09:10:59.837Z,4.72
2022-09-12T09:14:05.022Z,4.00
2022-09-12T09:16:34.985Z,3.58
2022-09-12T09:19:08.314Z,4.70
2022-09-12T09:21:43.347Z,3.72
2022-09-12T09:24:13.621Z,4.00
2022-09-12T09:26:54.819Z,4.05
2022-09-12T09:29:27.822Z,4.40
2022-09-12T09:32:00.097Z,3.83
2022-09-12T09:34:31.557Z,3.60
2022-09-12T09:36:58.065Z,3.67
2022-09-12T09:39:33.664Z,3.33
2022-09-12T09:42:16.986Z,3.10
2022-09-12T09:44:47.236Z,3.10
2022-09-12T09:47:14.165Z,3.70
2022-09-12T09:49:41.244Z,3.10
2022-09-12T09:52:08.882Z,4.28
2022-09-12T09:54:50.235Z,2.83
2022-09-12T09:57:40.980Z,3.08
2022-09-12T10:00:27.997Z,2.95
2022-09-12T10:03:04.983Z,3.05
2022-09-12T10:05:35.612Z,2.90
2022-09-12T10:08:04.430Z,3.75
2022-09-12T10:10:31.062Z,3.42
2022-09-12T10:13:09.083Z,3.67
2022-09-12T10:15:36.604Z,3.80
2022-09-12T10:18:03.889Z,4.93
2022-09-12T10:20:33.413Z,4.32
2022-09-12T10:23:02.054Z,4.03
2022-09-12T10:25:29.366Z,3.75
2022-09-12T10:28:00.942Z,3.85
2022-09-12T10:30:28.688Z,3.60
2022-09-12T10:33:08.324Z,2.60
2022-09-12T10:35:45.739Z,3.60
2022-09-12T10:38:23.802Z,3.90
2022-09-12T10:41:01.397Z,3.38
2022-09-12T10:43:39.660Z,3.53
2022-09-12T10:46:15.903Z,4.18
2022-09-12T10:48:43.921Z,3.78
2022-09-12T10:51:25.454Z,3.88
2022-09-12T10:53:55.116Z,3.35
2022-09-12T10:56:25.862Z,3.63
2022-09-12T10:58:58.374Z,3.55
2022-09-12T11:01:49.457Z,3.88
2022-09-12T11:04:42.101Z,3.90
2022-09-12T11:07:34.051Z,4.15
2022-09-12T11:10:26.878Z,3.78
2022-09-12T11:12:59.819Z,4.05
2022-09-12T11:16:03.844Z,3.88
2022-09-12T11:18:56.635Z,3.88
2022-09-12T11:21:46.264Z,4.40
2022-09-12T11:24:31.326Z,4.07
2022-09-12T11:27:08.851Z,3.85
2022-09-12T11:29:57.687Z,3.88
2022-09-12T11:32:36.437Z,3.50
2022-09-12T11:35:26.191Z,3.30
2022-09-12T11:38:14.894Z,3.53
2022-09-12T11:41:04.573Z,3.25
2022-09-12T11:43:58.089Z,2.53
2022-09-12T11:46:36.276Z,3.45
2022-09-12T11:49:12.319Z,3.97
2022-09-12T11:51:42.495Z,3.17
2022-09-12T11:54:39.893Z,3.13
2022-09-12T11:57:43.542Z,3.15
2022-09-12T12:00:35.209Z,2.70
2022-09-12T12:03:30.886Z,2.50
2022-09-12T12:06:19.340Z,2.30
2022-09-12T12:08:48.090Z,2.35
2022-09-12T12:11:26.257Z,1.27
2022-09-12T12:14:13.151Z,1.60
2022-09-12T12:16:41.119Z,1.50
2022-09-12T12:19:16.714Z,1.67
2022-09-12T12:21:53.011Z,2.10
2022-09-12T12:24:22.746Z,3.22
2022-09-12T12:26:57.464Z,2.10
2022-09-12T12:29:23.969Z,1.77
2022-09-12T12:31:59.349Z,2.05
2022-09-12T12:34:39.559Z,2.03
2022-09-12T12:37:32.152Z,2.35
2022-09-12T12:40:08.218Z,2.75
2022-09-12T12:42:37.306Z,2.38
2022-09-12T12:45:06.852Z,2.33
2022-09-12T12:47:42.977Z,2.58
2022-09-12T12:50:23.912Z,2.30
2022-09-12T12:52:58.598Z,2.15
2022-09-12T12:55:31.247Z,2.40
2022-09-12T12:58:02.406Z,3.17
2022-09-12T13:00:40.049Z,2.50
2022-09-12T13:03:11.697Z,2.58
2022-09-12T13:05:43.205Z,3.38
2022-09-12T13:08:28.678Z,3.10
2022-09-12T13:11:03.081Z,3.42
2022-09-12T13:13:49.461Z,3.25
2022-09-12T13:16:37.976Z,2.80
2022-09-12T13:19:18.129Z,3.55
2022-09-12T13:22:02.932Z,3.40
2022-09-12T13:24:29.588Z,3.22
2022-09-12T13:26:57.759Z,3.05
2022-09-12T13:29:26.841Z,3.08
2022-09-12T13:31:59.261Z,3.40
2022-09-12T13:34:30.417Z,2.95
2022-09-12T13:37:16.010Z,3.13
2022-09-12T13:40:10.653Z,3.60
2022-09-12T13:42:49.635Z,3.70
2022-09-12T13:45:29.960Z,3.92
2022-09-12T13:48:00.677Z,4.22
2022-09-12T13:50:32.247Z,4.38
2022-09-12T13:53:02.329Z,4.40
2022-09-12T13:55:37.109Z,3.75
2022-09-12T13:58:06.525Z,3.70
2022-09-12T14:00:35.065Z,4.38
2022-09-12T14:03:31.878Z,3.85
2022-09-12T14:05:59.294Z,3.95
2022-09-12T14:08:27.010Z,4.18
2022-09-12T14:10:55.022Z,4.10
2022-09-12T14:13:24.998Z,3.60
2022-09-12T14:15:54.307Z,4.15
2022-09-12T14:18:36.641Z,3.40
2022-09-12T14:21:12.784Z,3.95
2022-09-12T14:23:42.623Z,4.07
2022-09-12T14:26:14.237Z,3.88
2022-09-12T14:28:42.973Z,3.55
2022-09-12T14:31:12.560Z,4.15
2022-09-12T14:33:49.651Z,3.83
2022-09-12T14:36:32.185Z,3.90
2022-09-12T14:39:06.031Z,3.90
2022-09-12T14:41:36.783Z,3.45
2022-09-12T14:44:08.705Z,3.35
2022-09-12T14:46:40.954Z,3.38
2022-09-12T14:49:21.675Z,3.63
2022-09-12T14:51:51.461Z,3.42
2022-09-12T14:54:30.341Z,3.92
2022-09-12T14:57:05.909Z,3.58
2022-09-12T14:59:35.970Z,3.28
2022-09-12T15:02:20.953Z,3.35
2022-09-12T15:05:04.323Z,3.45
2022-09-12T15:07:36.979Z,3.67
2022-09-12T15:10:31.039Z,3.72
2022-09-12T15:13:09.715Z,3.88
2022-09-12T15:15:38.486Z,4.00
2022-09-12T15:18:06.944Z,4.10
2022-09-12T15:20:38.949Z,4.20
2022-09-12T15:23:10.917Z,4.40
2022-09-12T15:28:16.099Z,4.72
2022-09-12T15:30:43.212Z,4.70
2022-09-12T15:33:11.976Z,3.60
2022-09-12T15:35:39.275Z,4.78
2022-09-12T15:38:05.954Z,3.70
2022-09-12T15:40:32.847Z,3.50
2022-09-12T15:42:59.427Z,3.70
2022-09-12T15:45:31.461Z,3.67
2022-09-12T15:50:28.106Z,4.03
2022-09-12T15:52:55.684Z,4.53
2022-09-12T15:55:25.546Z,4.85
2022-09-12T15:57:52.267Z,4.43
2022-09-12T16:00:19.609Z,4.18
2022-09-12T16:02:49.156Z,4.32
2022-09-12T16:05:20.806Z,3.85
2022-09-12T16:07:49.303Z,4.03
2022-09-12T16:10:20.326Z,4.60
2022-09-12T16:12:46.939Z,4.07
2022-09-12T16:15:16.776Z,4.80
2022-09-12T16:17:43.469Z,4.47
2022-09-12T16:20:10.965Z,4.35
2022-09-12T16:22:38.112Z,4.15
2022-09-12T16:25:06.151Z,3.72
2022-09-12T16:27:33.222Z,4.53
2022-09-12T16:30:00.040Z,4.15
2022-09-12T16:32:26.929Z,3.97
2022-09-12T16:34:53.849Z,4.50
2022-09-12T16:37:20.476Z,4.28
2022-09-12T16:39:48.925Z,4.50
2022-09-12T16:42:19.385Z,4.45
2022-09-12T16:44:47.244Z,4.43
2022-09-12T16:47:14.650Z,4.15
2022-09-12T16:49:41.258Z,4.75
2022-09-12T16:52:08.186Z,4.15
2022-09-12T16:54:34.825Z,4.20
2022-09-12T16:57:01.574Z,5.32
2022-09-12T16:59:29.887Z,4.70
2022-09-12T17:01:56.546Z,4.80
2022-09-12T17:04:23.798Z,4.78
2022-09-12T17:06:50.518Z,5.57
2022-09-12T17:09:18.741Z,5.07
2022-09-12T17:11:50.377Z,4.97
2022-09-12T17:14:17.232Z,4.55
2022-09-12T17:16:51.417Z,5.00
2022-09-12T17:19:21.533Z,4.53
2022-09-12T17:21:49.940Z,6.10
2022-09-12T17:24:17.685Z,5.13
2022-09-12T17:26:44.899Z,6.07
2022-09-12T17:29:15.850Z,4.55
2022-09-12T17:31:43.831Z,5.80
2022-09-12T17:34:14.565Z,4.95
2022-09-12T17:36:45.505Z,5.00
2022-09-12T17:39:13.673Z,4.90
2022-09-12T17:41:42.875Z,10.95
2022-09-12T17:44:11.930Z,5.28
2022-09-12T17:46:39.448Z,4.68
2022-09-12T17:49:11.885Z,5.43
2022-09-12T17:51:39.553Z,6.15
2022-09-12T17:54:11.872Z,4.65
2022-09-12T17:56:39.152Z,4.32
2022-09-12T17:59:08.101Z,4.47
2022-09-12T18:01:53.559Z,5.32
2022-09-12T18:04:20.594Z,5.07
2022-09-12T18:06:50.457Z,4.55
2022-09-12T18:09:19.613Z,4.45
2022-09-12T18:11:48.147Z,4.93
2022-09-12T18:14:15.187Z,8.10
2022-09-12T18:16:42.667Z,118.07
2022-09-12T18:19:09.771Z,999.90
2022-09-12T18:21:36.379Z,999.90
2022-09-12T18:24:03.463Z,999.90
2022-09-12T18:26:31.170Z,999.90
2022-09-12T18:28:57.836Z,31.95
2022-09-12T18:31:27.634Z,569.75
2022-09-12T18:33:54.745Z,45.47
2022-09-12T18:36:21.757Z,3.47
2022-09-12T18:38:49.656Z,4.00
2022-09-12T18:41:22.245Z,2.88
2022-09-12T18:43:49.919Z,3.78
2022-09-12T18:46:18.589Z,3.13
2022-09-12T18:48:46.006Z,3.50
2022-09-12T18:51:20.049Z,2.88
2022-09-12T18:53:54.745Z,3.90
2022-09-12T18:56:23.172Z,2.38
2022-09-12T18:58:52.629Z,3.35
2022-09-12T19:01:24.760Z,3.00
2022-09-12T19:03:55.634Z,3.08
2022-09-12T19:06:28.258Z,2.55
2022-09-12T19:08:56.279Z,3.35
2022-09-12T19:11:24.506Z,2.97
2022-09-12T19:13:53.156Z,3.10
2022-09-12T19:16:22.733Z,3.28
2022-09-12T19:18:50.882Z,3.15
2022-09-12T19:21:23.039Z,3.33
2022-09-12T19:23:50.464Z,3.25
2022-09-12T19:26:18.797Z,3.83
2022-09-12T19:28:46.048Z,4.10
2022-09-12T19:31:15.027Z,3.65
2022-09-12T19:33:42.272Z,3.55
2022-09-12T19:36:27.666Z,3.25
2022-09-12T19:39:00.705Z,3.58
2022-09-12T19:41:27.573Z,3.28
2022-09-12T19:43:56.157Z,3.00
2022-09-12T19:46:24.858Z,3.03
2022-09-12T19:48:52.720Z,2.58
2022-09-12T19:51:21.172Z,2.45
2022-09-12T19:53:50.191Z,4.03
2022-09-12T19:56:16.987Z,3.20
2022-09-12T19:58:45.921Z,2.78
2022-09-12T20:01:19.970Z,3.45
2022-09-12T20:03:47.119Z,2.35
2022-09-12T20:06:17.440Z,2.63
2022-09-12T20:08:44.884Z,2.83
2022-09-12T20:11:14.263Z,3.00
2022-09-12T20:13:41.203Z,2.70
2022-09-12T20:16:21.406Z,2.63
2022-09-12T20:18:56.058Z,3.30
2022-09-12T20:21:25.491Z,2.83
2022-09-12T20:23:52.207Z,2.50
2022-09-12T20:26:20.272Z,3.53
2022-09-12T20:28:47.124Z,3.22
2022-09-12T20:31:15.663Z,2.65
2022-09-12T20:33:43.334Z,2.50
2022-09-12T20:36:12.930Z,2.58
2022-09-12T20:38:40.507Z,2.78
2022-09-12T20:41:10.068Z,2.78
2022-09-12T20:43:38.660Z,2.90
2022-09-12T20:46:11.049Z,3.35
2022-09-12T20:48:38.842Z,2.92
2022-09-12T20:51:06.402Z,3.55
2022-09-12T20:53:35.273Z,2.78
2022-09-12T20:56:03.807Z,2.85
2022-09-12T20:58:30.395Z,3.35
2022-09-12T21:00:57.319Z,3.10
2022-09-12T21:03:25.460Z,3.58
2022-09-12T21:05:52.122Z,3.58
2022-09-12T21:08:18.703Z,3.50
2022-09-12T21:10:45.268Z,3.13
2022-09-12T21:13:12.792Z,3.25
2022-09-12T21:15:40.736Z,3.08
2022-09-12T21:18:07.843Z,3.28
2022-09-12T21:20:34.735Z,3.63
2022-09-12T21:23:01.724Z,2.88
2022-09-12T21:25:29.337Z,3.05
2022-09-12T21:27:55.955Z,3.65
2022-09-12T21:30:22.612Z,3.53
2022-09-12T21:32:49.193Z,3.85
2022-09-12T21:35:16.283Z,2.88
2022-09-12T21:37:42.833Z,3.72
2022-09-12T21:40:09.864Z,3.42
2022-09-12T21:42:36.446Z,3.50
2022-09-12T21:45:03.086Z,2.85
2022-09-12T21:47:29.681Z,2.85
2022-09-12T21:49:56.324Z,4.22
2022-09-12T21:52:22.891Z,3.47
2022-09-12T21:54:49.434Z,2.83
2022-09-12T21:57:16.034Z,3.05
2022-09-12T21:59:42.646Z,3.03
2022-09-12T22:02:10.863Z,2.90
2022-09-12T22:04:37.596Z,2.90
2022-09-12T22:07:05.346Z,2.90
2022-09-12T22:09:32.893Z,2.70
2022-09-12T22:11:59.480Z,3.05
2022-09-12T22:14:26.340Z,3.28
2022-09-12T22:16:52.905Z,3.42
2022-09-12T22:19:19.722Z,3.35
2022-09-12T22:22:05.322Z,3.10
2022-09-12T22:24:31.887Z,3.25
2022-09-12T22:26:59.272Z,3.03
2022-09-12T22:29:26.807Z,2.60
2022-09-12T22:31:53.831Z,2.72
2022-09-12T22:34:20.417Z,3.08
2022-09-12T22:36:50.170Z,2.90
2022-09-12T22:39:16.820Z,3.65
2022-09-12T22:41:43.588Z,2.97
2022-09-12T22:44:11.344Z,3.22
2022-09-12T22:46:38.419Z,2.95
2022-09-12T22:49:06.853Z,2.90
2022-09-12T22:51:34.007Z,3.20
2022-09-12T22:54:00.629Z,3.38
2022-09-12T22:56:27.672Z,2.97
2022-09-12T22:58:54.487Z,3.25
2022-09-12T23:01:21.379Z,3.15
2022-09-12T23:03:48.165Z,3.58
2022-09-12T23:06:16.572Z,2.90
2022-09-12T23:08:43.448Z,2.88
2022-09-12T23:11:15.278Z,2.88
2022-09-12T23:13:43.933Z,3.40
2022-09-12T23:16:17.081Z,3.03
2022-09-12T23:18:44.193Z,2.95
2022-09-12T23:21:12.716Z,3.03
2022-09-12T23:23:39.969Z,2.97
2022-09-12T23:26:19.813Z,3.13
2022-09-12T23:28:53.674Z,3.05
2022-09-12T23:31:21.821Z,3.10
2022-09-12T23:33:49.562Z,2.63
2022-09-12T23:36:16.496Z,2.80
2022-09-12T23:38:45.098Z,3.10
2022-09-12T23:41:13.157Z,3.80
2022-09-12T23:43:39.940Z,2.95
2022-09-12T23:46:06.832Z,3.20
2022-09-12T23:48:34.247Z,2.97
2022-09-12T23:51:02.136Z,3.20
2022-09-12T23:53:29.384Z,3.42
2022-09-12T23:55:56.089Z,3.05
2022-09-12T23:58:23.167Z,3.55
